Time;durP1;ratioP1;P1;durP2;ratioP2;P2;SDS_P1;SDS_P2;PMS_P1;PMS_P2;Temp;Humidity;BMP_temperature;BMP_pressure;BME280_temperature;BME280_humidity;BME280_pressure;Samples;Min_cycle;Max_cycle;Signal;HPM_P1;HPM_P2
2021/06/03 00:32:08;;;;;;;;;;;14.70;96.60;;;13.56;68.04;95996.53;9950363;29;2058;-82
2021/06/03 01:08:56;;;;;;;;;;;;;;;;;;;;;
2021/06/03 01:14:44;;;;;;;;;;;14.20;99.10;;;13.11;70.22;96033.66;10211236;29;2239;-81
2021/06/03 01:44:40;;;;;;;;;;;14.00;99.90;;;12.68;71.46;96060.41;10189922;29;2143;-85
2021/06/03 02:14:33;;;;;;;;;;;13.50;98.00;;;12.25;67.69;96060.09;10299128;28;2097;-83
2021/06/03 02:20:07;;;;;;;;;;;13.40;98.70;;;12.21;67.35;96069.81;10294593;28;1993;-82
2021/06/03 02:31:30;;;;;;;;;;;13.30;99.10;;;12.12;68.10;96074.97;10259795;28;2085;-83
2021/06/03 02:43:48;;;;;;;;;;;13.20;99.90;;;12.03;68.72;96075.84;10143258;29;2219;-83
2021/06/03 03:01:22;;;;;;;;;;;;;;;;;;;;;
2021/06/03 03:19:06;;;;;;;;;;;13.00;99.50;;;11.95;67.32;96092.56;10019524;29;2076;-82
2021/06/03 03:31:06;;;;;;;;;;;13.00;99.70;;;11.93;68.09;96097.41;9945810;29;2220;-86
2021/06/03 03:36:51;;;;;;;;;;;;;;;;;;;;;
2021/06/03 04:05:32;;;;;;;;;;;14.10;99.90;;;13.77;63.06;96120.31;10347298;28;1707;-85
2021/06/03 06:06:57;;;;;;;;;;;21.10;87.40;;;20.95;48.19;96187.25;10189778;29;2110;-82
2021/06/03 06:12:41;;;;;;;;;;;21.30;86.00;;;21.04;47.99;96190.72;10252200;28;2090;-82
2021/06/03 06:41:03;;;;;;;;;;;22.80;82.70;;;22.53;45.14;96204.81;10347867;28;2250;-80
2021/06/03 06:46:30;;;;;;;;;;;;;;;;;;;;;
2021/06/03 07:21:23;;;;;;;;;;;23.20;80.90;;;22.98;44.54;96214.94;2784026;26;2143;-84
2021/06/03 07:26:42;;;;;;;;;;;23.20;80.70;;;22.95;45.08;96221.09;10519998;23;2058;-84
2021/06/03 07:31:52;;;;;;;;;;;23.40;80.90;;;23.32;43.63;96225.41;10386238;28;2009;-83
2021/06/03 07:36:59;;;;;;;;;;;23.60;79.70;;;23.46;43.44;96216.81;10362078;28;1895;-84
2021/06/03 07:47:48;;;;;;;;;;;24.20;79.30;;;23.98;42.49;96230.56;10485508;22;1996;-83
2021/06/03 07:59:29;;;;;;;;;;;24.70;77.00;;;23.89;43.13;96220.88;10341412;28;2299;-84
2021/06/03 08:04:35;;;;;;;;;;;24.50;77.80;;;24.29;40.93;96218.06;10328025;28;1962;-85
2021/06/03 08:09:38;;;;;;;;;;;24.70;76.40;;;24.03;41.44;96221.28;10313556;28;2035;-86
2021/06/03 08:14:44;;;;;;;;;;;24.60;75.60;;;24.64;40.17;96221.00;10313379;28;2088;-88
2021/06/03 08:20:21;;;;;;;;;;;24.80;75.70;;;24.60;40.41;96224.81;10333957;28;2056;-86
2021/06/03 08:25:24;;;;;;;;;;;25.10;74.70;;;24.27;40.06;96225.88;10397865;28;2134;-86
2021/06/03 08:30:27;;;;;;;;;;;25.00;73.90;;;24.05;41.24;96235.47;10401083;28;2016;-86
2021/06/03 08:35:37;;;;;;;;;;;24.80;74.40;;;24.07;40.29;96227.69;10398075;28;1291;-86
2021/06/03 08:40:41;;;;;;;;;;;24.80;73.80;;;23.81;40.88;96224.56;10396799;28;1953;-85
2021/06/03 08:45:44;;;;;;;;;;;24.70;74.00;;;23.71;41.93;96218.41;10413809;28;2186;-85
2021/06/03 08:50:46;;;;;;;;;;;24.60;74.60;;;24.17;41.47;96226.34;10397267;28;1691;-85
2021/06/03 09:01:09;;;;;;;;;;;25.10;73.20;;;25.00;38.04;96230.13;10421869;28;2074;-83
2021/06/03 09:06:13;;;;;;;;;;;25.30;72.20;;;25.03;38.81;96221.97;10440948;28;1297;-83
2021/06/03 09:11:16;;;;;;;;;;;25.50;72.20;;;25.34;37.95;96221.19;10450157;28;1936;-83
2021/06/03 09:16:19;;;;;;;;;;;25.60;71.50;;;25.15;38.51;96221.13;10438551;28;1681;-80
2021/06/03 09:21:21;;;;;;;;;;;25.70;71.10;;;24.79;38.11;96214.69;10431164;28;1969;-79
2021/06/03 09:26:24;;;;;;;;;;;25.80;70.00;;;24.77;38.92;96206.03;10416041;28;1899;-81
2021/06/03 09:31:28;;;;;;;;;;;25.60;70.90;;;24.79;39.90;96209.19;10393196;28;2125;-81
2021/06/03 09:36:31;;;;;;;;;;;25.60;71.90;;;25.65;38.33;96200.22;10395523;28;2047;-84
2021/06/03 09:41:33;;;;;;;;;;;25.90;71.70;;;25.79;37.38;96200.56;10417357;28;2050;-82
2021/06/03 09:46:36;;;;;;;;;;;26.20;70.30;;;24.44;39.38;96208.31;10403240;28;2043;-83
2021/06/03 09:51:38;;;;;;;;;;;25.70;69.80;;;23.84;40.75;96207.38;10397999;28;1707;-84
2021/06/03 09:56:40;;;;;;;;;;;25.10;71.50;;;24.54;39.10;96205.03;10417861;28;1868;-84
2021/06/03 10:01:43;;;;;;;;;;;25.10;71.70;;;24.88;39.74;96202.75;10413193;28;2312;-83
2021/06/03 10:06:45;;;;;;;;;;;25.40;71.90;;;24.78;38.31;96202.13;10418728;28;1664;-84
2021/06/03 10:11:48;;;;;;;;;;;25.60;69.60;;;24.17;39.95;96205.19;10423044;28;1673;-83
2021/06/03 10:16:51;;;;;;;;;;;25.20;70.90;;;23.58;41.56;96205.81;10421966;28;1645;-84
2021/06/03 10:21:53;;;;;;;;;;;24.70;72.10;;;23.57;41.06;96217.16;10398105;28;1902;-82
2021/06/03 10:26:56;;;;;;;;;;;24.40;72.30;;;24.20;39.89;96209.19;10412233;28;1543;-83
2021/06/03 10:31:58;;;;;;;;;;;24.70;72.40;;;24.25;39.70;96207.00;10403435;28;1944;-81
2021/06/03 10:37:01;;;;;;;;;;;25.00;71.50;;;24.58;39.35;96205.13;10397584;28;1987;-82
2021/06/03 10:42:04;;;;;;;;;;;25.20;71.20;;;24.56;38.85;96200.00;10396833;28;1890;-82
2021/06/03 10:47:06;;;;;;;;;;;25.30;70.60;;;24.77;39.64;96194.22;10405806;28;1909;-81
2021/06/03 10:52:21;;;;;;;;;;;25.30;71.60;;;26.52;35.30;96193.34;10417619;28;1798;-82
2021/06/03 10:57:23;;;;;;;;;;;26.70;68.90;;;28.11;31.92;96187.88;10395959;28;1681;-83
2021/06/03 11:02:26;;;;;;;;;;;29.10;64.90;;;27.72;31.68;96187.38;10414063;28;2091;-83
2021/06/03 11:07:28;;;;;;;;;;;30.40;60.40;;;27.65;31.89;96176.22;10403999;28;2123;-82
2021/06/03 11:12:30;;;;;;;;;;;30.50;59.60;;;27.69;31.49;96182.63;10400010;28;1945;-81
2021/06/03 11:17:33;;;;;;;;;;;30.20;59.10;;;27.87;31.02;96180.88;10406625;28;1632;-81
2021/06/03 11:22:36;;;;;;;;;;;30.10;59.00;;;27.40;31.56;96171.16;10396609;28;2106;-83
2021/06/03 11:27:39;;;;;;;;;;;29.90;58.00;;;28.18;30.61;96167.81;10411585;28;2056;-81
2021/06/03 11:32:42;;;;;;;;;;;29.90;57.90;;;27.69;31.55;96164.09;10429145;28;1970;-81
2021/06/03 11:37:45;;;;;;;;;;;29.30;59.10;;;26.95;32.86;96167.28;10438055;28;2277;-84
2021/06/03 11:42:51;;;;;;;;;;;28.50;59.90;;;26.10;34.26;96165.78;10423415;28;1895;-85
2021/06/03 11:47:55;;;;;;;;;;;27.40;61.80;;;26.40;34.67;96164.00;10407743;28;2066;-87
2021/06/03 11:52:59;;;;;;;;;;;27.40;62.50;;;25.92;35.05;96157.16;10405027;28;1978;-81
2021/06/03 11:58:02;;;;;;;;;;;27.30;62.50;;;25.58;35.76;96161.53;10395048;28;1981;-83
2021/06/03 12:03:04;;;;;;;;;;;26.90;62.80;;;25.80;35.88;96152.59;10397514;28;1917;-81
2021/06/03 12:08:07;;;;;;;;;;;26.60;64.50;;;25.75;35.18;96160.34;10425756;28;1760;-83
2021/06/03 12:13:09;;;;;;;;;;;26.90;63.10;;;26.56;33.83;96155.63;10446735;28;1792;-81
2021/06/03 12:18:12;;;;;;;;;;;27.20;62.90;;;26.93;33.98;96150.31;10412694;28;2061;-81
2021/06/03 12:23:14;;;;;;;;;;;27.80;62.70;;;26.90;32.59;96147.50;10399161;28;1922;-79
2021/06/03 12:28:16;;;;;;;;;;;27.80;60.50;;;27.39;31.72;96141.94;10416646;28;1157;-81
2021/06/03 12:33:24;;;;;;;;;;;28.10;60.80;;;27.22;31.99;96131.44;10415099;28;1866;-80
2021/06/03 12:38:26;;;;;;;;;;;28.10;60.10;;;26.65;31.84;96136.06;10404505;28;2110;-79
2021/06/03 12:43:29;;;;;;;;;;;28.00;59.20;;;25.68;33.40;96136.19;10404583;28;2020;-80
2021/06/03 12:48:31;;;;;;;;;;;27.10;59.80;;;25.53;34.42;96131.56;10400382;28;1888;-84
2021/06/03 12:53:34;;;;;;;;;;;26.60;61.00;;;25.26;33.09;96125.88;10405999;28;2252;-81
2021/06/03 12:58:36;;;;;;;;;;;26.40;60.10;;;25.43;32.91;96132.09;10394039;28;1874;-81
2021/06/03 13:03:39;;;;;;;;;;;26.20;60.30;;;25.30;33.74;96123.97;10401424;28;2016;-82
2021/06/03 13:08:41;;;;;;;;;;;26.20;60.90;;;25.69;33.17;96118.50;10412992;28;2095;-80
2021/06/03 13:13:43;;;;;;;;;;;26.40;60.70;;;26.66;31.90;96116.41;10404665;28;2014;-81
2021/06/03 13:18:46;;;;;;;;;;;26.20;60.00;;;26.21;31.31;96117.19;10409934;28;1841;-82
2021/06/03 13:23:49;;;;;;;;;;;27.50;58.00;;;26.53;31.76;96101.22;10413778;28;2069;-79
2021/06/03 13:28:52;;;;;;;;;;;27.20;59.00;;;26.56;30.35;96106.00;10400504;28;2368;-81
2021/06/03 13:33:54;;;;;;;;;;;27.50;57.30;;;26.98;29.39;96113.34;10399168;28;1884;-81
2021/06/03 13:38:56;;;;;;;;;;;27.70;56.80;;;27.27;28.73;96105.50;10403274;28;1913;-81
2021/06/03 13:43:59;;;;;;;;;;;28.00;56.70;;;27.75;29.25;96109.31;10399691;28;2012;-80
2021/06/03 13:49:01;;;;;;;;;;;28.40;56.70;;;26.81;29.76;96106.38;10401239;28;1997;-80
2021/06/03 13:54:03;;;;;;;;;;;28.10;56.00;;;26.93;29.05;96097.91;10397835;28;1885;-80
2021/06/03 13:59:06;;;;;;;;;;;27.90;55.30;;;26.65;29.14;96098.25;10416252;28;2145;-81
2021/06/03 14:04:08;;;;;;;;;;;27.70;55.10;;;25.97;30.36;96090.75;10417184;28;2153;-81
2021/06/03 14:09:11;;;;;;;;;;;27.20;55.80;;;25.88;30.93;96088.22;10429025;28;1810;-82
2021/06/03 14:14:13;;;;;;;;;;;26.90;56.70;;;26.55;30.32;96087.06;10423028;28;2067;-80
2021/06/03 14:19:16;;;;;;;;;;;27.20;57.20;;;27.10;28.66;96080.06;10410493;28;2083;-83
2021/06/03 14:24:18;;;;;;;;;;;27.70;55.60;;;27.14;28.94;96080.09;10429299;28;2036;-81
2021/06/03 14:29:20;;;;;;;;;;;27.80;55.20;;;27.00;28.84;96074.34;10414826;28;2139;-79
2021/06/03 14:34:23;;;;;;;;;;;27.90;54.80;;;26.89;28.53;96072.22;10416966;28;2190;-85
2021/06/03 14:39:25;;;;;;;;;;;27.90;54.00;;;26.08;30.15;96074.41;10423287;28;2190;-77
2021/06/03 14:44:28;;;;;;;;;;;27.30;55.40;;;26.03;30.50;96072.78;10423139;28;1986;-82
2021/06/03 14:49:31;;;;;;;;;;;27.00;56.70;;;26.48;28.81;96075.94;10404544;28;2148;-81
2021/06/03 14:54:33;;;;;;;;;;;27.30;55.00;;;27.01;27.83;96064.91;10424468;28;2052;-78
2021/06/03 14:59:35;;;;;;;;;;;27.50;54.10;;;26.63;27.98;96055.69;10421812;28;2096;-80
2021/06/03 15:04:38;;;;;;;;;;;28.00;53.30;;;26.94;27.38;96065.59;10412345;28;2088;-80
2021/06/03 15:09:40;;;;;;;;;;;28.00;53.20;;;26.91;27.55;96067.16;10416234;28;2028;-80
2021/06/03 15:20:12;;;;;;;;;;;28.20;52.90;;;27.17;26.71;96057.28;10410747;28;2314;-83
2021/06/03 15:25:14;;;;;;;;;;;28.40;51.90;;;27.59;26.26;96061.72;10430701;28;2100;-86
2021/06/03 15:30:16;;;;;;;;;;;28.50;52.00;;;27.80;27.08;96055.69;10411414;28;2059;-82
2021/06/03 15:35:19;;;;;;;;;;;28.60;52.40;;;26.93;26.90;96062.03;10395235;28;2041;-84
2021/06/03 15:40:21;;;;;;;;;;;28.20;51.90;;;27.36;26.56;96062.66;10412733;28;2033;-84
2021/06/03 15:45:23;;;;;;;;;;;28.10;52.10;;;27.44;26.21;96056.06;10422308;28;1910;-83
2021/06/03 15:50:26;;;;;;;;;;;28.30;51.70;;;26.87;26.69;96049.75;10416094;28;2080;-84
2021/06/03 15:55:28;;;;;;;;;;;28.10;51.60;;;26.81;26.94;96050.44;10408877;28;2142;-83
2021/06/03 16:00:31;;;;;;;;;;;27.90;51.40;;;26.56;27.81;96044.53;10406260;28;1928;-83
2021/06/03 16:05:34;;;;;;;;;;;27.50;52.40;;;26.02;28.13;96040.06;10425652;28;1960;-83
2021/06/03 16:10:36;;;;;;;;;;;27.30;52.40;;;25.85;28.03;96047.66;10426112;28;1881;-83
2021/06/03 16:15:39;;;;;;;;;;;27.00;52.60;;;25.75;27.84;96045.50;10428842;28;2067;-85
2021/06/03 16:20:42;;;;;;;;;;;26.80;51.80;;;25.78;27.97;96039.28;10437317;28;1925;-83
2021/06/03 16:25:44;;;;;;;;;;;26.70;52.40;;;25.69;28.12;96046.91;10431587;28;1950;-84
2021/06/03 16:30:47;;;;;;;;;;;26.60;52.60;;;25.11;28.79;96044.19;10430256;28;1829;-85
2021/06/03 16:35:49;;;;;;;;;;;26.30;52.90;;;25.21;28.62;96043.63;10426805;28;2013;-85
2021/06/03 16:40:52;;;;;;;;;;;26.10;53.10;;;25.22;29.17;96045.22;10442548;28;1944;-85
2021/06/03 16:45:55;;;;;;;;;;;26.10;53.50;;;25.15;28.24;96038.78;10426717;28;2121;-84
2021/06/03 16:51:00;;;;;;;;;;;26.00;53.20;;;24.90;28.28;96029.94;10419846;28;2005;-84
2021/06/03 16:56:04;;;;;;;;;;;25.80;52.50;;;24.75;28.57;96032.41;10405095;28;2192;-84
2021/06/03 17:01:06;;;;;;;;;;;25.70;52.50;;;24.63;28.65;96034.47;10402247;28;2076;-84
2021/06/03 17:06:08;;;;;;;;;;;25.60;52.70;;;24.31;28.80;96028.97;10406066;28;2238;-82
2021/06/03 17:11:11;;;;;;;;;;;25.30;52.90;;;24.21;28.84;96044.03;10393768;28;1978;-82
2021/06/03 17:16:13;;;;;;;;;;;25.10;53.20;;;24.06;29.13;96041.31;10422427;28;2117;-81
2021/06/03 17:21:16;;;;;;;;;;;25.00;53.40;;;23.98;28.74;96048.53;10406790;28;2112;-82
2021/06/03 17:26:18;;;;;;;;;;;24.90;53.10;;;23.97;28.61;96055.19;10415771;28;2106;-83
2021/06/03 17:31:21;;;;;;;;;;;24.80;53.00;;;23.86;28.67;96051.38;10400930;28;2063;-85
2021/06/03 17:36:24;;;;;;;;;;;24.80;53.00;;;23.73;28.57;96056.94;10390040;28;2159;-85
2021/06/03 17:41:28;;;;;;;;;;;24.70;52.90;;;23.59;29.00;96053.75;10396363;28;1989;-84
2021/06/03 17:46:32;;;;;;;;;;;24.50;53.20;;;23.46;29.07;96050.25;10404120;28;1996;-82
2021/06/03 17:51:35;;;;;;;;;;;24.40;53.20;;;23.32;29.59;96049.09;10394715;28;2110;-83
2021/06/03 17:56:38;;;;;;;;;;;24.30;53.70;;;23.19;30.00;96051.88;10396100;28;1899;-82
2021/06/03 18:01:40;;;;;;;;;;;24.20;54.10;;;23.16;30.35;96049.84;10395626;28;2214;-84
2021/06/03 18:06:42;;;;;;;;;;;24.10;54.60;;;23.09;30.59;96051.53;10402938;28;2094;-84
2021/06/03 18:11:45;;;;;;;;;;;24.00;54.80;;;22.97;31.32;96055.13;10405788;28;2233;-84
2021/06/03 18:16:47;;;;;;;;;;;23.90;55.40;;;22.92;31.19;96056.16;10406985;28;2116;-84
2021/06/03 18:21:49;;;;;;;;;;;23.80;55.30;;;22.78;31.71;96057.66;10404339;28;2078;-85
2021/06/03 18:26:52;;;;;;;;;;;23.70;55.80;;;22.64;32.14;96064.28;10418441;28;2286;-85
2021/06/03 18:31:54;;;;;;;;;;;23.60;56.20;;;22.44;32.91;96059.72;10405460;28;2086;-82
2021/06/03 18:37:00;;;;;;;;;;;23.50;56.80;;;22.28;33.25;96058.81;10436998;28;1913;-84
2021/06/03 18:42:03;;;;;;;;;;;23.30;57.40;;;22.12;33.77;96064.16;10418369;28;2269;-83
2021/06/03 18:47:25;;;;;;;;;;;23.10;57.90;;;21.99;34.69;96070.72;10413141;28;2095;-85
2021/06/03 18:52:31;;;;;;;;;;;23.00;58.60;;;22.02;34.64;96070.84;10406928;28;2057;-83
2021/06/03 18:57:34;;;;;;;;;;;23.00;59.00;;;21.90;35.53;96068.09;10404452;28;2114;-85
2021/06/03 19:02:37;;;;;;;;;;;22.90;59.60;;;21.75;35.90;96061.31;10423313;28;1932;-86
2021/06/03 19:07:42;;;;;;;;;;;22.80;60.00;;;21.62;36.14;96078.03;10425249;28;1828;-87
2021/06/03 19:12:49;;;;;;;;;;;22.60;60.40;;;21.58;36.27;96072.44;10417515;28;1987;-85
2021/06/03 19:17:55;;;;;;;;;;;22.50;60.80;;;21.50;36.77;96071.41;10405958;28;2168;-83
2021/06/03 19:22:58;;;;;;;;;;;22.50;61.30;;;21.39;37.25;96078.41;10404021;28;2056;-86
2021/06/03 19:28:04;;;;;;;;;;;22.40;61.60;;;21.25;37.49;96080.59;10401974;28;1855;-83
2021/06/03 19:33:25;;;;;;;;;;;22.30;61.90;;;21.14;37.39;96080.19;10414834;28;2077;-85
2021/06/03 19:38:27;;;;;;;;;;;22.10;61.90;;;20.95;37.82;96096.25;10400495;28;2225;-85
2021/06/03 19:43:30;;;;;;;;;;;22.00;62.10;;;20.71;38.36;96094.16;10405159;28;2116;-82
2021/06/03 19:48:33;;;;;;;;;;;21.80;62.40;;;20.52;38.55;96095.38;10407282;28;1912;-83
2021/06/03 19:53:36;;;;;;;;;;;21.60;62.70;;;20.40;38.79;96099.91;10397818;28;2124;-85
2021/06/03 19:58:38;;;;;;;;;;;21.50;63.20;;;20.28;39.24;96106.06;10406879;28;2051;-84
2021/06/03 20:03:41;;;;;;;;;;;21.40;63.40;;;20.02;39.77;96108.09;10411933;28;2255;-85
2021/06/03 20:08:44;;;;;;;;;;;21.20;63.80;;;19.92;39.80;96112.78;10411931;28;2303;-84
2021/06/03 20:13:46;;;;;;;;;;;21.00;63.90;;;19.85;39.89;96123.38;10401212;28;1595;-85
2021/06/03 20:18:49;;;;;;;;;;;20.90;64.10;;;19.81;39.99;96122.44;10415371;28;2118;-84
2021/06/03 20:23:51;;;;;;;;;;;20.90;64.40;;;19.74;40.56;96129.50;10403592;28;2289;-85
2021/06/03 20:28:54;;;;;;;;;;;20.80;64.80;;;19.61;40.98;96128.56;10400516;28;2164;-86
2021/06/03 20:33:56;;;;;;;;;;;20.70;65.20;;;19.59;40.79;96117.94;10402357;28;2279;-84
2021/06/03 20:38:59;;;;;;;;;;;20.60;65.40;;;19.71;40.65;96117.28;10406939;28;2071;-85
2021/06/03 20:44:02;;;;;;;;;;;20.60;65.40;;;19.74;40.44;96122.13;10399381;28;2417;-85
2021/06/03 20:49:04;;;;;;;;;;;20.70;65.40;;;19.64;40.54;96127.91;10390929;28;2155;-84
2021/06/03 20:54:07;;;;;;;;;;;20.60;65.20;;;19.72;39.42;96127.06;10395926;28;2212;-88
2021/06/03 20:59:09;;;;;;;;;;;20.60;64.40;;;19.70;39.47;96119.22;10429695;28;2519;-87
2021/06/03 21:04:12;;;;;;;;;;;20.60;64.40;;;19.71;38.52;96123.56;10413300;28;2081;-86
2021/06/03 21:09:14;;;;;;;;;;;20.60;63.80;;;19.59;38.83;96122.59;10422390;28;2054;-83
2021/06/03 21:14:17;;;;;;;;;;;20.60;63.50;;;19.42;38.88;96135.13;10418826;28;2159;-83
2021/06/03 21:19:19;;;;;;;;;;;20.50;63.50;;;19.34;38.69;96127.75;10399396;28;2139;-84
2021/06/03 21:24:22;;;;;;;;;;;20.30;63.10;;;19.18;38.14;96121.16;10402194;28;2250;-84
2021/06/03 21:29:24;;;;;;;;;;;20.20;62.70;;;19.06;38.68;96123.72;10418871;28;2120;-84
2021/06/03 21:34:27;;;;;;;;;;;20.10;62.90;;;18.95;37.75;96133.31;10409699;28;2234;-89
2021/06/03 21:39:32;;;;;;;;;;;20.10;62.10;;;18.69;38.48;96130.53;10392592;28;2065;-85
2021/06/03 21:44:35;;;;;;;;;;;19.90;62.30;;;18.61;38.45;96129.34;10401929;28;1999;-85
2021/06/03 21:49:37;;;;;;;;;;;19.70;62.60;;;18.47;38.65;96128.69;10425183;28;2059;-84
2021/06/03 21:54:39;;;;;;;;;;;19.60;62.50;;;18.31;38.91;96142.69;10420491;28;2032;-83
2021/06/03 21:59:42;;;;;;;;;;;19.50;63.10;;;18.23;39.30;96140.75;10416186;28;1989;-87
2021/06/03 22:04:44;;;;;;;;;;;19.30;63.50;;;18.37;38.30;96132.47;10415134;28;2103;-85
2021/06/03 22:09:47;;;;;;;;;;;19.30;62.70;;;18.38;37.74;96142.25;10440224;28;2079;-85
2021/06/03 22:14:50;;;;;;;;;;;19.40;62.20;;;18.36;38.27;96139.03;10424932;28;2100;-87
2021/06/03 22:19:52;;;;;;;;;;;19.40;62.50;;;18.30;38.61;96141.09;10399499;28;2037;-88
2021/06/03 22:24:55;;;;;;;;;;;19.30;63.00;;;18.40;38.42;96134.59;10412206;28;2096;-86
2021/06/03 22:29:58;;;;;;;;;;;19.30;63.10;;;18.45;38.38;96139.06;10406241;28;2080;-86
2021/06/03 22:35:00;;;;;;;;;;;19.30;62.90;;;18.28;38.89;96135.16;10405710;28;2041;-86
2021/06/03 22:40:03;;;;;;;;;;;19.30;63.10;;;18.09;39.45;96134.59;10414978;28;2239;-83
2021/06/03 22:45:05;;;;;;;;;;;19.20;63.50;;;17.84;40.85;96133.34;10435411;28;2150;-87
2021/06/03 22:50:08;;;;;;;;;;;19.00;64.10;;;17.61;41.91;96127.09;10429876;28;1807;-84
2021/06/03 22:55:10;;;;;;;;;;;18.80;65.40;;;17.49;42.24;96137.69;10421017;28;2037;-82
2021/06/03 23:00:13;;;;;;;;;;;18.60;65.90;;;17.44;42.04;96124.25;10413229;28;1988;-82
2021/06/03 23:05:16;;;;;;;;;;;18.60;65.90;;;17.32;43.03;96126.72;10409623;28;2131;-84
2021/06/03 23:10:19;;;;;;;;;;;18.50;66.80;;;17.17;42.94;96123.22;10410922;28;2134;-83
2021/06/03 23:15:21;;;;;;;;;;;18.30;67.00;;;17.03;43.24;96119.75;10397280;28;2152;-85
2021/06/03 23:20:24;;;;;;;;;;;18.20;67.50;;;16.95;43.33;96110.44;10398352;28;2244;-85
2021/06/03 23:25:27;;;;;;;;;;;18.10;67.30;;;16.92;43.91;96112.94;10396914;28;2155;-85
2021/06/03 23:30:29;;;;;;;;;;;18.00;68.00;;;16.93;44.04;96114.56;10395468;28;2101;-84
2021/06/03 23:35:31;;;;;;;;;;;18.00;68.30;;;16.73;44.75;96105.75;10403457;28;2132;-86
2021/06/03 23:40:34;;;;;;;;;;;17.90;68.90;;;16.59;45.20;96109.56;10395553;28;2020;-85
2021/06/03 23:45:36;;;;;;;;;;;17.80;69.00;;;16.49;45.84;96113.31;10397313;28;2143;-86
2021/06/03 23:50:39;;;;;;;;;;;17.70;69.60;;;16.44;46.46;96102.53;10394086;28;2227;-83
2021/06/03 23:55:42;;;;;;;;;;;17.60;70.30;;;16.38;46.79;96104.56;10391546;28;2091;-84
